Moffett Federal Airfield Mountain View US
ICAO: KNUQ
IATA: NUQ
Category: Medium
Scheduled Services: No

Elevation: 32 ft
TransAlt. 18000 ft.

Airport Communications:
NORCAL APP:31.76
NORCAL APP:120.1
ATIS/ASOS:124.175
CLNC DEL:38.08
CTAF:119.55
NORCAL DEP:121.3
GND:121.85
ANG:39.09
BASE OPS:25.17
TWR:119.55

KNUQ Zoom In..

Runways:

(A) RW 14L length 9197 ft width 200 ft
LOC 110.35 / hdg 142

(B) RW 14R length 8122 ft width 200 ft
LOC 110.35 / hdg 142

(C) RW 32L length 8122 ft width 200 ft
LOC 110.35 / hdg 322

(D) RW 32R length 9197 ft width 200 ft
ILS 110.35 / hdg 322

Location; KNUQ
Day. 21 / Time. 23.56 Zulu
* Altimeter: 30.34
* Temperature: 13° c. 55.4°f.
* Wind from: 040° Speed 03 kn.
Dewpoint: 07° c.
Visibility: 10 Statute Miles.
Clouds: Clear (automated report).

KNUQ 212356Z 04003KT 10SM CLR 13/07 A3034 RMK AO2 SLP276 T01330067 10139 20089 55006


Wind From 040°
Speed 03 kn.

jpsM music video
CHECK IT OUT

jpsM - It Moves..

 
jpsmedia.com for Web Design  worldairports.se 2018   terms of use